EXS62JN EGCC-LTBS
Flight info
| Callsign | EXS62JN |
|---|---|
| Flight time | N/A |
| Altitude | 35000 |
| Route | SONEX1R SONEX L975 DESIG L603 DOLAS DCT NAVPI DCT DOJOH DCT DODEN DCT NEGIX DCT DINKU DCT BESNI DCT LATLO DCT OBEDI DCT CEPRA DCT PODET DCT IRDIV DCT VABEK UL603 OLOTA DCT RUGAS UN128 RIKSO UP14 ODNOD UT491 SONUP SONUP1Y |
| Aircraft | B738/M-SDE2E3FGHIRWXY/LB1 |
Departure
| Time | N/A |
|---|---|
| Airport | Manchester Airport (EGCC) |
Arrival
| Time | 2026-05-09 01:26 |
|---|---|
| Airport | Dalaman International Airport (LTBS) |
| Time | Latitude | Longitude | Altitude | Speed | Heading |
|---|---|---|---|---|---|
| 2026-05-08 23:14 | 53.32904 | -0.79459 | 22426 ft | 428 kts | 110° |
| 2026-05-08 23:15 | 53.32015 | -0.74694 | 22842 ft | 431 kts | 110° |
| 2026-05-08 23:15 | 53.31118 | -0.69903 | 23251 ft | 434 kts | 110° |
| 2026-05-08 23:15 | 53.30210 | -0.65071 | 23669 ft | 437 kts | 110° |
| 2026-05-08 23:15 | 53.29297 | -0.60209 | 24013 ft | 440 kts | 110° |
| 2026-05-08 23:16 | 53.28374 | -0.55319 | 24352 ft | 442 kts | 110° |
| 2026-05-08 23:16 | 53.27436 | -0.50408 | 24669 ft | 445 kts | 110° |
| 2026-05-08 23:16 | 53.26497 | -0.45471 | 25002 ft | 448 kts | 110° |
| 2026-05-08 23:16 | 53.25556 | -0.40490 | 25333 ft | 450 kts | 110° |
| 2026-05-08 23:17 | 53.24614 | -0.35493 | 25639 ft | 452 kts | 110° |
| 2026-05-08 23:17 | 53.23666 | -0.30482 | 25958 ft | 454 kts | 110° |
| 2026-05-08 23:17 | 53.22716 | -0.25505 | 26258 ft | 457 kts | 110° |
| 2026-05-08 23:17 | 53.21727 | -0.20376 | 26561 ft | 459 kts | 110° |
| 2026-05-08 23:18 | 53.20743 | -0.15291 | 26860 ft | 462 kts | 110° |
| 2026-05-08 23:18 | 53.19768 | -0.10250 | 27175 ft | 464 kts | 110° |
| 2026-05-08 23:18 | 53.18773 | -0.05125 | 27469 ft | 466 kts | 110° |
| 2026-05-08 23:18 | 53.17770 | 0.00037 | 27740 ft | 469 kts | 110° |
| 2026-05-08 23:19 | 53.16764 | 0.05212 | 28008 ft | 471 kts | 110° |
| 2026-05-08 23:19 | 53.15751 | 0.10423 | 28277 ft | 474 kts | 110° |
| 2026-05-08 23:19 | 53.14731 | 0.15657 | 28550 ft | 476 kts | 110° |
| 2026-05-08 23:19 | 53.13705 | 0.20906 | 28822 ft | 478 kts | 110° |
| 2026-05-08 23:20 | 53.12673 | 0.26178 | 29060 ft | 480 kts | 110° |
| 2026-05-08 23:20 | 53.11632 | 0.31481 | 29309 ft | 483 kts | 110° |
| 2026-05-08 23:20 | 53.10585 | 0.36801 | 29552 ft | 485 kts | 110° |
| 2026-05-08 23:20 | 53.09531 | 0.42142 | 29829 ft | 486 kts | 110° |
| 2026-05-08 23:21 | 53.08474 | 0.47479 | 30178 ft | 485 kts | 110° |
| 2026-05-08 23:21 | 53.07416 | 0.52810 | 30493 ft | 485 kts | 110° |
| 2026-05-08 23:21 | 53.06359 | 0.58120 | 30805 ft | 484 kts | 110° |
| 2026-05-08 23:21 | 53.05298 | 0.63428 | 31087 ft | 484 kts | 110° |
| 2026-05-08 23:22 | 53.04236 | 0.68731 | 31356 ft | 483 kts | 110° |
| 2026-05-08 23:22 | 53.03174 | 0.74021 | 31643 ft | 483 kts | 110° |
| 2026-05-08 23:22 | 53.02112 | 0.79302 | 31941 ft | 482 kts | 110° |
| 2026-05-08 23:22 | 53.01049 | 0.84571 | 32216 ft | 481 kts | 110° |
| 2026-05-08 23:23 | 52.99985 | 0.89837 | 32486 ft | 481 kts | 110° |
| 2026-05-08 23:23 | 52.98922 | 0.95077 | 32855 ft | 477 kts | 110° |
| 2026-05-08 23:23 | 52.97862 | 1.00288 | 33158 ft | 476 kts | 110° |
| 2026-05-08 23:23 | 52.96756 | 1.05474 | 33354 ft | 477 kts | 111° |
| 2026-05-08 23:24 | 52.95612 | 1.10565 | 33512 ft | 479 kts | 111° |
| 2026-05-08 23:24 | 52.94426 | 1.15722 | 33756 ft | 478 kts | 112° |
| 2026-05-08 23:24 | 52.93238 | 1.20861 | 34051 ft | 476 kts | 112° |
| 2026-05-08 23:24 | 52.92059 | 1.25973 | 34299 ft | 475 kts | 112° |
| 2026-05-08 23:25 | 52.90880 | 1.31096 | 34489 ft | 475 kts | 111° |
| 2026-05-08 23:25 | 52.89705 | 1.36215 | 34675 ft | 475 kts | 111° |
| 2026-05-08 23:25 | 52.88532 | 1.41325 | 34882 ft | 474 kts | 112° |
| 2026-05-08 23:25 | 52.87362 | 1.46427 | 35081 ft | 474 kts | 112° |
| 2026-05-08 23:26 | 52.85009 | 1.56652 | 35167 ft | 477 kts | 111° |
| 2026-05-08 23:26 | 52.82642 | 1.66884 | 35171 ft | 475 kts | 111° |
| 2026-05-08 23:27 | 52.80275 | 1.77061 | 35170 ft | 473 kts | 111° |
| 2026-05-08 23:27 | 52.77914 | 1.87168 | 35172 ft | 470 kts | 111° |
| 2026-05-08 23:28 | 52.75554 | 1.97218 | 35178 ft | 469 kts | 112° |
| 2026-05-08 23:28 | 52.73191 | 2.07240 | 35167 ft | 468 kts | 111° |
| 2026-05-08 23:29 | 52.70819 | 2.17249 | 35176 ft | 468 kts | 111° |
| 2026-05-08 23:29 | 52.68438 | 2.27259 | 35174 ft | 470 kts | 111° |
| 2026-05-08 23:30 | 52.66039 | 2.37289 | 35176 ft | 471 kts | 111° |
| 2026-05-08 23:30 | 52.63639 | 2.47276 | 35171 ft | 473 kts | 111° |
| 2026-05-08 23:31 | 52.61207 | 2.57355 | 35176 ft | 474 kts | 111° |
| 2026-05-08 23:31 | 52.58705 | 2.67674 | 35172 ft | 476 kts | 111° |
| 2026-05-08 23:32 | 52.53673 | 2.87850 | 35165 ft | 478 kts | 116° |
| 2026-05-08 23:32 | 52.47458 | 3.07137 | 35152 ft | 479 kts | 118° |
| 2026-05-08 23:33 | 52.41213 | 3.26428 | 35162 ft | 479 kts | 117° |
| 2026-05-08 23:33 | 52.35007 | 3.45711 | 35154 ft | 479 kts | 117° |
| 2026-05-08 23:34 | 52.28772 | 3.64915 | 35152 ft | 478 kts | 117° |
| 2026-05-08 23:34 | 52.22509 | 3.84044 | 35158 ft | 477 kts | 117° |
| 2026-05-08 23:35 | 52.16233 | 4.03078 | 35157 ft | 476 kts | 117° |
| 2026-05-08 23:35 | 52.09938 | 4.22012 | 35157 ft | 475 kts | 117° |
| 2026-05-08 23:36 | 52.03617 | 4.40882 | 35155 ft | 475 kts | 117° |
| 2026-05-08 23:36 | 51.97323 | 4.59538 | 35132 ft | 474 kts | 117° |
| 2026-05-08 23:37 | 51.90961 | 4.78248 | 35151 ft | 474 kts | 117° |
| 2026-05-08 23:37 | 51.84571 | 4.96901 | 35160 ft | 474 kts | 117° |
| 2026-05-08 23:38 | 51.78156 | 5.15493 | 35152 ft | 473 kts | 117° |
| 2026-05-08 23:38 | 51.71719 | 5.34005 | 35162 ft | 473 kts | 117° |
| 2026-05-08 23:39 | 51.65241 | 5.52490 | 35138 ft | 473 kts | 116° |
| 2026-05-08 23:39 | 51.58743 | 5.70918 | 35158 ft | 473 kts | 117° |
| 2026-05-08 23:40 | 51.52209 | 5.89306 | 35160 ft | 473 kts | 116° |
| 2026-05-08 23:40 | 51.45651 | 6.07622 | 35154 ft | 473 kts | 117° |
| 2026-05-08 23:41 | 51.39071 | 6.25868 | 35169 ft | 473 kts | 117° |
| 2026-05-08 23:41 | 51.32469 | 6.44050 | 35151 ft | 473 kts | 117° |
| 2026-05-08 23:42 | 51.25835 | 6.62186 | 35155 ft | 472 kts | 117° |
| 2026-05-08 23:42 | 51.19193 | 6.80215 | 35159 ft | 471 kts | 117° |
| 2026-05-08 23:43 | 51.12529 | 6.98182 | 35143 ft | 470 kts | 117° |
| 2026-05-08 23:43 | 51.05854 | 7.16053 | 35166 ft | 469 kts | 118° |
| 2026-05-08 23:44 | 50.99282 | 7.33524 | 35140 ft | 468 kts | 118° |
| 2026-05-08 23:44 | 50.92598 | 7.51177 | 35142 ft | 466 kts | 118° |
| 2026-05-08 23:45 | 50.85908 | 7.68732 | 35151 ft | 465 kts | 120° |
| 2026-05-08 23:45 | 50.82232 | 7.76957 | 35141 ft | 467 kts | 134° |
| 2026-05-08 23:45 | 50.77402 | 7.84009 | 35164 ft | 466 kts | 136° |
| 2026-05-08 23:46 | 50.67978 | 7.97817 | 35162 ft | 465 kts | 136° |
| 2026-05-08 23:46 | 50.58680 | 8.11937 | 35145 ft | 464 kts | 129° |
| 2026-05-08 23:47 | 50.50745 | 8.27876 | 35155 ft | 462 kts | 128° |
| 2026-05-08 23:47 | 50.42708 | 8.43640 | 35160 ft | 462 kts | 129° |
| 2026-05-08 23:48 | 50.34466 | 8.59075 | 35144 ft | 462 kts | 133° |
| 2026-05-08 23:48 | 50.25614 | 8.73632 | 35138 ft | 462 kts | 134° |
| 2026-05-08 23:49 | 50.16799 | 8.88243 | 35136 ft | 462 kts | 134° |
| 2026-05-08 23:49 | 50.07976 | 9.02841 | 35138 ft | 463 kts | 134° |
| 2026-05-08 23:50 | 49.99124 | 9.17395 | 35143 ft | 463 kts | 134° |
| 2026-05-08 23:50 | 49.90243 | 9.31914 | 35139 ft | 464 kts | 134° |
| 2026-05-08 23:51 | 49.81333 | 9.46397 | 35134 ft | 464 kts | 134° |
| 2026-05-08 23:51 | 49.72403 | 9.60830 | 35142 ft | 464 kts | 135° |
| 2026-05-08 23:52 | 49.63459 | 9.75203 | 35128 ft | 464 kts | 135° |
| 2026-05-08 23:52 | 49.54521 | 9.89490 | 35119 ft | 463 kts | 135° |
| 2026-05-08 23:53 | 49.45580 | 10.03694 | 35132 ft | 462 kts | 136° |
| 2026-05-08 23:53 | 49.36677 | 10.17766 | 35131 ft | 461 kts | 136° |
| 2026-05-08 23:54 | 49.27718 | 10.31851 | 35136 ft | 461 kts | 136° |
| 2026-05-08 23:55 | 49.14054 | 10.52545 | 35167 ft | 461 kts | 138° |
| 2026-05-08 23:55 | 49.04821 | 10.66177 | 35159 ft | 462 kts | 138° |
| 2026-05-08 23:56 | 48.95571 | 10.79808 | 35143 ft | 464 kts | 139° |
| 2026-05-08 23:56 | 48.87776 | 10.91234 | 35133 ft | 465 kts | 139° |
| 2026-05-08 23:57 | 48.78434 | 11.04861 | 35117 ft | 467 kts | 139° |
| 2026-05-08 23:57 | 48.69027 | 11.18511 | 35108 ft | 469 kts | 139° |
| 2026-05-08 23:58 | 48.59861 | 11.32475 | 35103 ft | 474 kts | 135° |
| 2026-05-08 23:58 | 48.51068 | 11.47315 | 35100 ft | 475 kts | 135° |
| 2026-05-08 23:59 | 48.42154 | 11.62055 | 35108 ft | 476 kts | 135° |
| 2026-05-08 23:59 | 48.33186 | 11.76763 | 35114 ft | 478 kts | 135° |
| 2026-05-09 00:00 | 48.24171 | 11.91472 | 35095 ft | 479 kts | 135° |
| 2026-05-09 00:00 | 48.15123 | 12.06153 | 35113 ft | 479 kts | 135° |
| 2026-05-09 00:01 | 48.06139 | 12.20654 | 35085 ft | 470 kts | 135° |
| 2026-05-09 00:01 | 47.97316 | 12.34815 | 35062 ft | 463 kts | 136° |
| 2026-05-09 00:02 | 47.88439 | 12.48976 | 35116 ft | 473 kts | 136° |
| 2026-05-09 00:02 | 47.79300 | 12.63487 | 35113 ft | 486 kts | 136° |
| 2026-05-09 00:03 | 47.70042 | 12.78115 | 35064 ft | 482 kts | 136° |
| 2026-05-09 00:03 | 47.60819 | 12.91994 | 35085 ft | 471 kts | 139° |
| 2026-05-09 00:04 | 47.51530 | 13.05598 | 35108 ft | 470 kts | 138° |
| 2026-05-09 00:04 | 47.42154 | 13.19349 | 35112 ft | 481 kts | 138° |
| 2026-05-09 00:05 | 47.32553 | 13.33450 | 35116 ft | 492 kts | 134° |
| 2026-05-09 00:05 | 47.24509 | 13.49696 | 35085 ft | 483 kts | 127° |
| 2026-05-09 00:06 | 47.16778 | 13.65478 | 35102 ft | 472 kts | 128° |
| 2026-05-09 00:06 | 47.08978 | 13.81128 | 35143 ft | 479 kts | 128° |
| 2026-05-09 00:07 | 47.01034 | 13.96991 | 35138 ft | 486 kts | 128° |
| 2026-05-09 00:07 | 46.93035 | 14.12893 | 35114 ft | 480 kts | 129° |
| 2026-05-09 00:08 | 46.85185 | 14.28403 | 35097 ft | 470 kts | 129° |
| 2026-05-09 00:08 | 46.77373 | 14.43745 | 35141 ft | 473 kts | 129° |
| 2026-05-09 00:09 | 46.69491 | 14.59139 | 35125 ft | 481 kts | 129° |
| 2026-05-09 00:09 | 46.61462 | 14.74740 | 35088 ft | 479 kts | 129° |
| 2026-05-09 00:10 | 46.53547 | 14.90036 | 35079 ft | 468 kts | 129° |
| 2026-05-09 00:10 | 46.45759 | 15.05000 | 35108 ft | 463 kts | 130° |
| 2026-05-09 00:11 | 46.37933 | 15.19961 | 35103 ft | 470 kts | 130° |
| 2026-05-09 00:11 | 46.30290 | 15.35605 | 35105 ft | 480 kts | 127° |
| 2026-05-09 00:12 | 46.22631 | 15.51403 | 35071 ft | 476 kts | 128° |
| 2026-05-09 00:12 | 46.14779 | 15.66253 | 35077 ft | 456 kts | 139° |
| 2026-05-09 00:13 | 46.05501 | 15.78690 | 35082 ft | 459 kts | 140° |
| 2026-05-09 00:13 | 45.96085 | 15.91484 | 35106 ft | 473 kts | 140° |
| 2026-05-09 00:14 | 45.86532 | 16.04493 | 35075 ft | 476 kts | 140° |
| 2026-05-09 00:14 | 45.77013 | 16.17388 | 35052 ft | 464 kts | 140° |
| 2026-05-09 00:15 | 45.67675 | 16.29963 | 35084 ft | 461 kts | 140° |
| 2026-05-09 00:15 | 45.58216 | 16.42635 | 35088 ft | 471 kts | 140° |
| 2026-05-09 00:16 | 45.48560 | 16.55520 | 35068 ft | 478 kts | 140° |
| 2026-05-09 00:16 | 45.38950 | 16.68281 | 35044 ft | 464 kts | 140° |
| 2026-05-09 00:17 | 45.29621 | 16.80606 | 35032 ft | 456 kts | 140° |
| 2026-05-09 00:17 | 45.20225 | 16.92954 | 35085 ft | 467 kts | 140° |
| 2026-05-09 00:18 | 45.10567 | 17.05602 | 35082 ft | 477 kts | 140° |
| 2026-05-09 00:18 | 45.01556 | 17.19337 | 35068 ft | 475 kts | 130° |
| 2026-05-09 00:19 | 44.93588 | 17.34029 | 35071 ft | 467 kts | 130° |
| 2026-05-09 00:19 | 44.85585 | 17.48407 | 35088 ft | 467 kts | 131° |
| 2026-05-09 00:20 | 44.77465 | 17.62879 | 35060 ft | 476 kts | 131° |
| 2026-05-09 00:20 | 44.69174 | 17.77599 | 35083 ft | 483 kts | 131° |
| 2026-05-09 00:21 | 44.60822 | 17.92356 | 35046 ft | 480 kts | 131° |
| 2026-05-09 00:21 | 44.52616 | 18.06777 | 35063 ft | 465 kts | 131° |
| 2026-05-09 00:22 | 44.44528 | 18.20908 | 35081 ft | 469 kts | 131° |
| 2026-05-09 00:22 | 44.36243 | 18.35317 | 35089 ft | 482 kts | 131° |
| 2026-05-09 00:23 | 44.27767 | 18.49993 | 35066 ft | 485 kts | 131° |
| 2026-05-09 00:23 | 44.19352 | 18.64492 | 35056 ft | 475 kts | 132° |
| 2026-05-09 00:24 | 44.11053 | 18.78709 | 35084 ft | 474 kts | 132° |
| 2026-05-09 00:24 | 44.02633 | 18.93061 | 35084 ft | 484 kts | 132° |
| 2026-05-09 00:25 | 43.94107 | 19.07530 | 35055 ft | 488 kts | 132° |
| 2026-05-09 00:25 | 43.85520 | 19.22029 | 35068 ft | 483 kts | 132° |
| 2026-05-09 00:26 | 43.77070 | 19.36222 | 35058 ft | 474 kts | 132° |
| 2026-05-09 00:26 | 43.68674 | 19.50250 | 35087 ft | 475 kts | 132° |
| 2026-05-09 00:27 | 43.60135 | 19.64454 | 35093 ft | 487 kts | 132° |
| 2026-05-09 00:27 | 43.51394 | 19.78924 | 35039 ft | 491 kts | 132° |
| 2026-05-09 00:28 | 43.42718 | 19.93221 | 35050 ft | 480 kts | 133° |
| 2026-05-09 00:28 | 43.34206 | 20.07165 | 35082 ft | 475 kts | 133° |
| 2026-05-09 00:29 | 43.25620 | 20.21170 | 35094 ft | 485 kts | 133° |
| 2026-05-09 00:29 | 43.16868 | 20.35376 | 35060 ft | 490 kts | 133° |
| 2026-05-09 00:30 | 43.08111 | 20.49534 | 35048 ft | 482 kts | 133° |
| 2026-05-09 00:30 | 42.99467 | 20.63353 | 35059 ft | 475 kts | 136° |
| 2026-05-09 00:31 | 42.90000 | 20.75697 | 35083 ft | 477 kts | 140° |
| 2026-05-09 00:31 | 42.80241 | 20.88259 | 35087 ft | 487 kts | 139° |
| 2026-05-09 00:32 | 42.70432 | 21.00999 | 35061 ft | 485 kts | 139° |
| 2026-05-09 00:32 | 42.60767 | 21.13478 | 35037 ft | 474 kts | 140° |
| 2026-05-09 00:33 | 42.51181 | 21.25791 | 35103 ft | 478 kts | 140° |
| 2026-05-09 00:33 | 42.41385 | 21.38321 | 35084 ft | 489 kts | 140° |
| 2026-05-09 00:34 | 42.31456 | 21.50972 | 35053 ft | 490 kts | 140° |
| 2026-05-09 00:34 | 42.21620 | 21.63468 | 35062 ft | 481 kts | 139° |
| 2026-05-09 00:35 | 42.12145 | 21.76060 | 35084 ft | 478 kts | 139° |
| 2026-05-09 00:35 | 42.02584 | 21.88719 | 35089 ft | 488 kts | 139° |
| 2026-05-09 00:36 | 41.92761 | 22.01631 | 35074 ft | 497 kts | 139° |
| 2026-05-09 00:36 | 41.82917 | 22.14520 | 35028 ft | 490 kts | 139° |
| 2026-05-09 00:37 | 41.73253 | 22.27112 | 35061 ft | 481 kts | 139° |
| 2026-05-09 00:37 | 41.63617 | 22.39607 | 35086 ft | 486 kts | 139° |
| 2026-05-09 00:38 | 41.53783 | 22.52305 | 35064 ft | 497 kts | 139° |
| 2026-05-09 00:38 | 41.43766 | 22.65192 | 35061 ft | 500 kts | 139° |
| 2026-05-09 00:39 | 41.33831 | 22.77905 | 35058 ft | 489 kts | 140° |
| 2026-05-09 00:39 | 41.28453 | 22.83216 | 35053 ft | 478 kts | 153° |
| 2026-05-09 00:39 | 41.22814 | 22.87919 | 35088 ft | 480 kts | 152° |
| 2026-05-09 00:40 | 41.11541 | 22.97852 | 35067 ft | 496 kts | 144° |
| 2026-05-09 00:40 | 41.06854 | 23.04673 | 35076 ft | 507 kts | 125° |
| 2026-05-09 00:40 | 41.03008 | 23.12536 | 35060 ft | 509 kts | 125° |
| 2026-05-09 00:41 | 40.91318 | 23.35512 | 35070 ft | 497 kts | 126° |
| 2026-05-09 00:41 | 40.83599 | 23.50590 | 35082 ft | 496 kts | 126° |
| 2026-05-09 00:42 | 40.75754 | 23.65829 | 35078 ft | 508 kts | 126° |
| 2026-05-09 00:42 | 40.67759 | 23.81290 | 35033 ft | 509 kts | 126° |
| 2026-05-09 00:43 | 40.59832 | 23.96545 | 35051 ft | 500 kts | 126° |
| 2026-05-09 00:43 | 40.51991 | 24.11504 | 35060 ft | 496 kts | 126° |
| 2026-05-09 00:44 | 40.44068 | 24.26544 | 35080 ft | 506 kts | 126° |
| 2026-05-09 00:44 | 40.35965 | 24.41861 | 35079 ft | 513 kts | 126° |
| 2026-05-09 00:45 | 40.27905 | 24.57028 | 35030 ft | 504 kts | 127° |
| 2026-05-09 00:45 | 40.19940 | 24.71938 | 35046 ft | 497 kts | 127° |
| 2026-05-09 00:46 | 40.11968 | 24.86791 | 35072 ft | 503 kts | 127° |
| 2026-05-09 00:46 | 40.05159 | 24.99422 | 35067 ft | 512 kts | 127° |
| 2026-05-09 00:47 | 39.96936 | 25.14616 | 35038 ft | 510 kts | 127° |
| 2026-05-09 00:47 | 39.88046 | 25.28465 | 35045 ft | 489 kts | 143° |
| 2026-05-09 00:48 | 39.77735 | 25.39907 | 35070 ft | 494 kts | 143° |
| 2026-05-09 00:48 | 39.67226 | 25.51779 | 35058 ft | 506 kts | 142° |
| 2026-05-09 00:49 | 39.56558 | 25.63809 | 35061 ft | 508 kts | 143° |
| 2026-05-09 00:49 | 39.45982 | 25.75675 | 35042 ft | 497 kts | 143° |
| 2026-05-09 00:50 | 39.35595 | 25.87276 | 35064 ft | 492 kts | 143° |
| 2026-05-09 00:50 | 39.25107 | 25.98853 | 35076 ft | 502 kts | 145° |
| 2026-05-09 00:51 | 39.14235 | 26.10425 | 35048 ft | 510 kts | 145° |
| 2026-05-09 00:51 | 39.03417 | 26.21971 | 35061 ft | 498 kts | 145° |
| 2026-05-09 00:52 | 38.92846 | 26.33197 | 35108 ft | 491 kts | 145° |
| 2026-05-09 00:52 | 38.83374 | 26.45927 | 35106 ft | 511 kts | 114° |
| 2026-05-09 00:53 | 38.81714 | 26.54799 | 35137 ft | 515 kts | 96° |
| 2026-05-09 00:53 | 38.80744 | 26.63927 | 35110 ft | 520 kts | 97° |
| 2026-05-09 00:53 | 38.78522 | 26.82084 | 35085 ft | 515 kts | 98° |
| 2026-05-09 00:54 | 38.74903 | 26.99448 | 35119 ft | 503 kts | 121° |
| 2026-05-09 00:54 | 38.66604 | 27.13780 | 35119 ft | 505 kts | 131° |
| 2026-05-09 00:55 | 38.58027 | 27.28259 | 35135 ft | 515 kts | 130° |
| 2026-05-09 00:55 | 38.51896 | 27.38620 | 35114 ft | 510 kts | 130° |
| 2026-05-09 00:56 | 38.49763 | 27.42214 | 34938 ft | 505 kts | 130° |
| 2026-05-09 00:56 | 38.47651 | 27.45763 | 34607 ft | 500 kts | 131° |
| 2026-05-09 00:56 | 38.45556 | 27.49279 | 34235 ft | 495 kts | 131° |
| 2026-05-09 00:56 | 38.43480 | 27.52757 | 33801 ft | 492 kts | 131° |
| 2026-05-09 00:57 | 38.41410 | 27.56223 | 33381 ft | 489 kts | 131° |
| 2026-05-09 00:57 | 38.39355 | 27.59660 | 32971 ft | 486 kts | 131° |
| 2026-05-09 00:57 | 38.37308 | 27.63085 | 32579 ft | 483 kts | 131° |
| 2026-05-09 00:57 | 38.35279 | 27.66475 | 32190 ft | 481 kts | 130° |
| 2026-05-09 00:58 | 38.33252 | 27.69857 | 31783 ft | 477 kts | 131° |
| 2026-05-09 00:58 | 38.31247 | 27.73200 | 31413 ft | 474 kts | 131° |
| 2026-05-09 00:58 | 38.29249 | 27.76527 | 31025 ft | 472 kts | 131° |
| 2026-05-09 00:58 | 38.27219 | 27.79787 | 30670 ft | 466 kts | 136° |
| 2026-05-09 00:59 | 38.24925 | 27.82643 | 30262 ft | 458 kts | 147° |
| 2026-05-09 00:59 | 38.22367 | 27.85004 | 29868 ft | 452 kts | 151° |
| 2026-05-09 00:59 | 38.19791 | 27.87268 | 29432 ft | 449 kts | 152° |
| 2026-05-09 00:59 | 38.17226 | 27.89516 | 29028 ft | 445 kts | 151° |
| 2026-05-09 01:00 | 38.14691 | 27.91750 | 28637 ft | 443 kts | 151° |
| 2026-05-09 01:00 | 38.12178 | 27.93980 | 28275 ft | 439 kts | 151° |
| 2026-05-09 01:00 | 38.09716 | 27.96174 | 27891 ft | 436 kts | 150° |
| 2026-05-09 01:00 | 38.07245 | 27.98385 | 27510 ft | 433 kts | 150° |
| 2026-05-09 01:01 | 38.04795 | 28.00576 | 27122 ft | 430 kts | 150° |
| 2026-05-09 01:01 | 38.02353 | 28.02757 | 26750 ft | 428 kts | 150° |
| 2026-05-09 01:01 | 37.99924 | 28.04930 | 26344 ft | 426 kts | 150° |
| 2026-05-09 01:01 | 37.97516 | 28.07097 | 26011 ft | 422 kts | 150° |
| 2026-05-09 01:02 | 37.95123 | 28.09226 | 25643 ft | 420 kts | 150° |
| 2026-05-09 01:02 | 37.92732 | 28.11345 | 25272 ft | 418 kts | 150° |
| 2026-05-09 01:02 | 37.90358 | 28.13453 | 24899 ft | 416 kts | 150° |
| 2026-05-09 01:02 | 37.87989 | 28.15554 | 24522 ft | 415 kts | 150° |
| 2026-05-09 01:03 | 37.85626 | 28.17654 | 24146 ft | 414 kts | 150° |
| 2026-05-09 01:03 | 37.83271 | 28.19745 | 23766 ft | 414 kts | 150° |
| 2026-05-09 01:03 | 37.80918 | 28.21831 | 23346 ft | 412 kts | 150° |
| 2026-05-09 01:03 | 37.78582 | 28.23905 | 22950 ft | 410 kts | 149° |
| 2026-05-09 01:04 | 37.76252 | 28.25971 | 22540 ft | 408 kts | 150° |
| 2026-05-09 01:04 | 37.73936 | 28.28024 | 22169 ft | 405 kts | 150° |
| 2026-05-09 01:04 | 37.71640 | 28.30056 | 21808 ft | 401 kts | 150° |
| 2026-05-09 01:04 | 37.69369 | 28.32063 | 21466 ft | 397 kts | 150° |
| 2026-05-09 01:05 | 37.67112 | 28.34056 | 21107 ft | 395 kts | 150° |
| 2026-05-09 01:05 | 37.64870 | 28.36034 | 20756 ft | 392 kts | 150° |
| 2026-05-09 01:05 | 37.60462 | 28.39919 | 20062 ft | 386 kts | 149° |
| 2026-05-09 01:06 | 37.58268 | 28.41851 | 19723 ft | 384 kts | 149° |
| 2026-05-09 01:06 | 37.56100 | 28.43762 | 19363 ft | 376 kts | 149° |
| 2026-05-09 01:06 | 37.53983 | 28.45627 | 19031 ft | 367 kts | 149° |
| 2026-05-09 01:06 | 37.51917 | 28.47443 | 18698 ft | 358 kts | 149° |
| 2026-05-09 01:07 | 37.49887 | 28.49223 | 18371 ft | 355 kts | 150° |
| 2026-05-09 01:07 | 37.47783 | 28.50802 | 17994 ft | 349 kts | 159° |
| 2026-05-09 01:07 | 37.45583 | 28.52038 | 17674 ft | 344 kts | 162° |
| 2026-05-09 01:07 | 37.43384 | 28.53205 | 17341 ft | 341 kts | 162° |
| 2026-05-09 01:08 | 37.41206 | 28.54360 | 17022 ft | 339 kts | 162° |
| 2026-05-09 01:08 | 37.39036 | 28.55523 | 16698 ft | 338 kts | 162° |
| 2026-05-09 01:08 | 37.36888 | 28.56685 | 16381 ft | 335 kts | 161° |
| 2026-05-09 01:08 | 37.34756 | 28.57847 | 16071 ft | 333 kts | 161° |
| 2026-05-09 01:09 | 37.32635 | 28.59008 | 15762 ft | 331 kts | 161° |
| 2026-05-09 01:09 | 37.30525 | 28.60166 | 15442 ft | 331 kts | 161° |
| 2026-05-09 01:09 | 37.28418 | 28.61322 | 15130 ft | 330 kts | 161° |
| 2026-05-09 01:09 | 37.26311 | 28.62477 | 14814 ft | 330 kts | 161° |
| 2026-05-09 01:10 | 37.24213 | 28.63626 | 14482 ft | 329 kts | 161° |
| 2026-05-09 01:10 | 37.22115 | 28.64776 | 14203 ft | 327 kts | 161° |
| 2026-05-09 01:10 | 37.20054 | 28.65906 | 14006 ft | 322 kts | 161° |
| 2026-05-09 01:10 | 37.18006 | 28.67028 | 13685 ft | 320 kts | 161° |
| 2026-05-09 01:11 | 37.15965 | 28.68145 | 13364 ft | 319 kts | 160° |
| 2026-05-09 01:11 | 37.13939 | 28.69254 | 13056 ft | 317 kts | 160° |
| 2026-05-09 01:11 | 37.11926 | 28.70356 | 12733 ft | 315 kts | 160° |
| 2026-05-09 01:11 | 37.09918 | 28.71454 | 12424 ft | 314 kts | 160° |
| 2026-05-09 01:12 | 37.07926 | 28.72541 | 12219 ft | 309 kts | 160° |
| 2026-05-09 01:12 | 37.05903 | 28.73278 | 11936 ft | 299 kts | 182° |
| 2026-05-09 01:12 | 37.03841 | 28.73174 | 11618 ft | 295 kts | 188° |
| 2026-05-09 01:12 | 37.01796 | 28.72996 | 11317 ft | 295 kts | 188° |
| 2026-05-09 01:13 | 36.99746 | 28.72823 | 11004 ft | 295 kts | 187° |
| 2026-05-09 01:13 | 36.97687 | 28.72657 | 10602 ft | 299 kts | 187° |
| 2026-05-09 01:13 | 36.95611 | 28.72499 | 10287 ft | 299 kts | 187° |
| 2026-05-09 01:13 | 36.93560 | 28.72348 | 10152 ft | 291 kts | 186° |
| 2026-05-09 01:14 | 36.91585 | 28.72205 | 9985 ft | 286 kts | 186° |
| 2026-05-09 01:14 | 36.89610 | 28.72039 | 9661 ft | 284 kts | 190° |
| 2026-05-09 01:14 | 36.87696 | 28.71541 | 9372 ft | 279 kts | 198° |
| 2026-05-09 01:14 | 36.85825 | 28.70913 | 9095 ft | 278 kts | 198° |
| 2026-05-09 01:15 | 36.83961 | 28.70280 | 8756 ft | 278 kts | 198° |
| 2026-05-09 01:15 | 36.82085 | 28.69664 | 8411 ft | 280 kts | 197° |
| 2026-05-09 01:15 | 36.80197 | 28.69061 | 8061 ft | 280 kts | 197° |
| 2026-05-09 01:15 | 36.78305 | 28.68464 | 7718 ft | 281 kts | 197° |
| 2026-05-09 01:16 | 36.76404 | 28.67869 | 7359 ft | 283 kts | 196° |
| 2026-05-09 01:16 | 36.74492 | 28.67273 | 7014 ft | 284 kts | 196° |
| 2026-05-09 01:16 | 36.72569 | 28.66674 | 6653 ft | 286 kts | 196° |
| 2026-05-09 01:17 | 36.68767 | 28.65491 | 5893 ft | 275 kts | 197° |
| 2026-05-09 01:17 | 36.66935 | 28.64883 | 5542 ft | 269 kts | 197° |
| 2026-05-09 01:17 | 36.65148 | 28.64273 | 5200 ft | 263 kts | 197° |
| 2026-05-09 01:17 | 36.63398 | 28.63676 | 4871 ft | 258 kts | 197° |
| 2026-05-09 01:18 | 36.61682 | 28.63093 | 4540 ft | 253 kts | 197° |
| 2026-05-09 01:18 | 36.59999 | 28.62524 | 4213 ft | 249 kts | 197° |
| 2026-05-09 01:18 | 36.58360 | 28.61968 | 4023 ft | 236 kts | 197° |
| 2026-05-09 01:18 | 36.56827 | 28.61450 | 3845 ft | 221 kts | 197° |
| 2026-05-09 01:19 | 36.55384 | 28.60986 | 3713 ft | 209 kts | 191° |
| 2026-05-09 01:19 | 36.53982 | 28.61242 | 3605 ft | 208 kts | 151° |
| 2026-05-09 01:19 | 36.52957 | 28.62483 | 3546 ft | 207 kts | 120° |
| 2026-05-09 01:19 | 36.52471 | 28.64129 | 3456 ft | 198 kts | 105° |
| 2026-05-09 01:20 | 36.52124 | 28.65735 | 3335 ft | 193 kts | 105° |
| 2026-05-09 01:20 | 36.51775 | 28.67328 | 3241 ft | 190 kts | 105° |
| 2026-05-09 01:20 | 36.51427 | 28.68914 | 3146 ft | 190 kts | 105° |
| 2026-05-09 01:20 | 36.51123 | 28.70507 | 3044 ft | 190 kts | 93° |
| 2026-05-09 01:21 | 36.51523 | 28.72017 | 2938 ft | 190 kts | 43° |
| 2026-05-09 01:21 | 36.52673 | 28.72740 | 2889 ft | 186 kts | 15° |
| 2026-05-09 01:21 | 36.53907 | 28.73234 | 2817 ft | 186 kts | 16° |
| 2026-05-09 01:21 | 36.55127 | 28.73695 | 2785 ft | 181 kts | 14° |
| 2026-05-09 01:22 | 36.56347 | 28.74122 | 2725 ft | 184 kts | 13° |
| 2026-05-09 01:22 | 36.57591 | 28.74549 | 2483 ft | 184 kts | 13° |
| 2026-05-09 01:22 | 36.58796 | 28.74962 | 2239 ft | 174 kts | 14° |
| 2026-05-09 01:22 | 36.59921 | 28.75346 | 2019 ft | 162 kts | 14° |
| 2026-05-09 01:23 | 36.60977 | 28.75708 | 1858 ft | 156 kts | 14° |
| 2026-05-09 01:23 | 36.62026 | 28.76068 | 1617 ft | 154 kts | 14° |
| 2026-05-09 01:23 | 36.63032 | 28.76413 | 1410 ft | 147 kts | 14° |
| 2026-05-09 01:23 | 36.64011 | 28.76747 | 1236 ft | 147 kts | 14° |
| 2026-05-09 01:24 | 36.65000 | 28.77086 | 1041 ft | 148 kts | 14° |
| 2026-05-09 01:24 | 36.65984 | 28.77422 | 847 ft | 146 kts | 15° |
| 2026-05-09 01:24 | 36.66958 | 28.77765 | 636 ft | 144 kts | 16° |
| 2026-05-09 01:24 | 36.67911 | 28.78084 | 484 ft | 140 kts | 15° |
| 2026-05-09 01:25 | 36.68857 | 28.78404 | 311 ft | 142 kts | 16° |
| 2026-05-09 01:25 | 36.69798 | 28.78731 | 103 ft | 139 kts | 17° |
| 2026-05-09 01:25 | 36.70700 | 28.79041 | 12 ft | 125 kts | 16° |
| 2026-05-09 01:25 | 36.71399 | 28.79280 | 12 ft | 82 kts | 15° |
| 2026-05-09 01:26 | 36.71801 | 28.79416 | 11 ft | 39 kts | 14° |
| 2026-05-09 01:26 | 36.71931 | 28.79431 | 11 ft | 8 kts | 1° |
| 2026-05-09 01:26 | 36.71993 | 28.79427 | 11 ft | 11 kts | 355° |
| 2026-05-09 01:26 | 36.72087 | 28.79400 | 11 ft | 15 kts | 344° |
| 2026-05-09 01:27 | 36.72108 | 28.79392 | 11 ft | 2 kts | 344° |
| 2026-05-09 01:27 | 36.72120 | 28.79388 | 11 ft | 2 kts | 345° |
| 2026-05-09 01:27 | 36.72135 | 28.79383 | 12 ft | 3 kts | 345° |
| 2026-05-09 01:27 | 36.72163 | 28.79374 | 11 ft | 5 kts | 345° |
| 2026-05-09 01:28 | 36.72208 | 28.79358 | 11 ft | 8 kts | 344° |
| 2026-05-09 01:28 | 36.72263 | 28.79349 | 11 ft | 8 kts | 330° |
| 2026-05-09 01:28 | 36.72283 | 28.79291 | 11 ft | 7 kts | 283° |
| 2026-05-09 01:28 | 36.72296 | 28.79233 | 11 ft | 7 kts | 285° |
| 2026-05-09 01:29 | 36.72301 | 28.79175 | 11 ft | 7 kts | 255° |
| 2026-05-09 01:29 | 36.72266 | 28.79142 | 11 ft | 7 kts | 198° |
| 2026-05-09 01:29 | 36.72221 | 28.79125 | 11 ft | 7 kts | 196° |
| 2026-05-09 01:29 | 36.72178 | 28.79111 | 11 ft | 6 kts | 195° |
| 2026-05-09 01:30 | 36.72139 | 28.79093 | 13 ft | 5 kts | 224° |
| 2026-05-09 01:30 | 36.72142 | 28.79053 | 11 ft | 5 kts | 284° |
| 2026-05-09 01:30 | 36.72149 | 28.79021 | 11 ft | 2 kts | 285° |
| 2026-05-09 01:30 | 36.72149 | 28.79019 | 11 ft | 0 kts | 285° |